Time;durP1;ratioP1;P1;durP2;ratioP2;P2;SDS_P1;SDS_P2;PMS_P1;PMS_P2;Temp;Humidity;BMP_temperature;BMP_pressure;BME280_temperature;BME280_humidity;BME280_pressure;Samples;Min_cycle;Max_cycle;Signal;HPM_P1;HPM_P2
2022/07/01 00:00:48;;;;;;;10.95;4.38;;;18.10;99.90;;;;;;4961304;28;20474;-74
2022/07/01 00:03:13;;;;;;;7.40;4.63;;;18.20;99.90;;;;;;4955837;28;20019;-73
2022/07/01 00:05:39;;;;;;;9.55;4.88;;;18.30;99.90;;;;;;4973863;28;20027;-73
2022/07/01 00:08:04;;;;;;;7.43;4.22;;;18.40;99.90;;;;;;4964023;28;20496;-73
2022/07/01 00:10:30;;;;;;;10.00;3.85;;;18.40;99.90;;;;;;4973166;28;20038;-73
2022/07/01 00:12:56;;;;;;;7.28;3.40;;;18.40;99.90;;;;;;4958372;28;20032;-73
2022/07/01 00:15:22;;;;;;;7.25;4.13;;;18.40;99.90;;;;;;4939488;29;20086;-73
2022/07/01 00:17:48;;;;;;;8.43;3.47;;;18.40;99.90;;;;;;4954037;29;20050;-73
2022/07/01 00:20:14;;;;;;;6.88;3.38;;;18.40;99.90;;;;;;4954366;28;20030;-73
2022/07/01 00:22:40;;;;;;;5.55;3.08;;;18.40;99.90;;;;;;4951240;29;20046;-73
2022/07/01 00:25:07;;;;;;;5.88;3.03;;;18.40;99.90;;;;;;4955009;29;20086;-73
2022/07/01 00:27:36;;;;;;;6.53;3.30;;;18.40;99.90;;;;;;4966760;28;20546;-73
2022/07/01 00:30:02;;;;;;;7.30;3.00;;;18.40;99.90;;;;;;4963423;28;20027;-73
2022/07/01 00:32:27;;;;;;;5.63;2.50;;;18.50;99.90;;;;;;4962835;28;20038;-73
2022/07/01 00:34:53;;;;;;;4.60;2.90;;;18.50;99.90;;;;;;4957582;29;20023;-73
2022/07/01 00:37:18;;;;;;;9.23;2.85;;;18.50;99.90;;;;;;4939742;29;20122;-74
2022/07/01 00:39:44;;;;;;;5.63;2.47;;;18.40;99.90;;;;;;4965199;28;20034;-73
2022/07/01 00:42:10;;;;;;;5.75;1.95;;;18.40;99.90;;;;;;4963130;28;20027;-74
2022/07/01 00:44:35;;;;;;;3.20;1.85;;;18.40;99.90;;;;;;4963070;28;20455;-73
2022/07/01 00:47:03;;;;;;;4.50;1.80;;;18.40;99.90;;;;;;4976579;28;20023;-74
2022/07/01 00:49:29;;;;;;;2.88;2.00;;;18.40;99.90;;;;;;4972396;28;20420;-74
2022/07/01 00:51:56;;;;;;;4.25;1.75;;;18.40;99.90;;;;;;4957362;28;20050;-73
2022/07/01 00:54:21;;;;;;;2.15;1.40;;;18.30;99.90;;;;;;4970680;28;20026;-73
2022/07/01 00:56:48;;;;;;;4.43;1.50;;;18.40;99.90;;;;;;4957144;28;20032;-73
2022/07/01 00:59:14;;;;;;;2.92;1.40;;;18.30;99.90;;;;;;4957192;28;20110;-73
2022/07/01 01:01:41;;;;;;;2.03;1.40;;;18.30;99.90;;;;;;4963849;28;20050;-74
2022/07/01 01:04:06;;;;;;;3.65;1.30;;;18.30;99.90;;;;;;4963923;28;20031;-74
2022/07/01 01:06:33;;;;;;;2.85;1.35;;;18.30;99.90;;;;;;4957015;28;20038;-74
2022/07/01 01:08:59;;;;;;;5.43;1.58;;;18.20;99.90;;;;;;4957261;29;20035;-74
2022/07/01 01:11:25;;;;;;;1.90;1.38;;;18.10;99.90;;;;;;4970426;28;20512;-73
2022/07/01 01:13:51;;;;;;;4.72;1.13;;;18.10;99.90;;;;;;4965752;28;20484;-73
2022/07/01 01:16:18;;;;;;;2.97;1.02;;;18.00;99.90;;;;;;4976318;28;20035;-73
2022/07/01 01:18:44;;;;;;;4.30;1.50;;;18.00;99.90;;;;;;4968842;28;20027;-73
2022/07/01 01:21:09;;;;;;;4.80;1.27;;;18.00;99.90;;;;;;4956751;28;20035;-73
2022/07/01 01:23:35;;;;;;;1.45;1.00;;;18.00;99.90;;;;;;4956305;28;20362;-73
2022/07/01 01:26:02;;;;;;;2.00;1.05;;;17.90;99.90;;;;;;4949550;28;20027;-73
2022/07/01 01:28:28;;;;;;;1.27;0.95;;;17.90;99.90;;;;;;4961977;28;20053;-73
2022/07/01 01:30:53;;;;;;;0.98;0.90;;;17.90;99.90;;;;;;4975750;28;20059;-73
2022/07/01 01:33:19;;;;;;;1.38;0.90;;;17.90;99.90;;;;;;4973295;28;20419;-73
2022/07/01 01:35:45;;;;;;;2.45;1.00;;;17.90;99.90;;;;;;4971147;28;20031;-73
2022/07/01 01:38:10;;;;;;;4.03;1.10;;;17.90;99.90;;;;;;4956216;29;20113;-73
2022/07/01 01:40:37;;;;;;;1.45;0.90;;;17.90;99.90;;;;;;4956307;29;20031;-73
2022/07/01 01:43:03;;;;;;;3.58;0.90;;;17.90;99.90;;;;;;4960148;28;20020;-73
2022/07/01 01:45:28;;;;;;;1.63;0.90;;;17.80;99.90;;;;;;4952527;28;20023;-73
2022/07/01 01:47:54;;;;;;;3.08;1.00;;;17.80;99.90;;;;;;4939517;29;20424;-74
2022/07/01 01:50:20;;;;;;;1.73;0.82;;;17.80;99.90;;;;;;4955137;28;20031;-74
2022/07/01 01:52:46;;;;;;;1.65;1.08;;;17.80;99.90;;;;;;4963207;28;20046;-74
2022/07/01 01:55:13;;;;;;;1.13;0.98;;;17.80;99.90;;;;;;4956016;29;20019;-74
2022/07/01 01:57:38;;;;;;;2.28;1.00;;;17.80;99.90;;;;;;4969814;28;20057;-74
2022/07/01 02:00:08;;;;;;;1.40;1.00;;;17.70;99.90;;;;;;4938477;29;20051;-73
2022/07/01 02:02:36;;;;;;;0.85;0.82;;;17.70;99.90;;;;;;4938806;29;20082;-74
2022/07/01 02:05:07;;;;;;;2.80;1.17;;;17.70;99.90;;;;;;4965590;28;20023;-73
2022/07/01 02:07:32;;;;;;;3.38;1.10;;;17.70;99.90;;;;;;4958446;28;20027;-73
2022/07/01 02:09:58;;;;;;;1.92;0.90;;;17.70;99.90;;;;;;4955781;29;20074;-73
2022/07/01 02:12:23;;;;;;;2.08;1.10;;;17.70;99.90;;;;;;4969053;28;20563;-73
2022/07/01 02:14:49;;;;;;;1.15;1.00;;;17.70;99.90;;;;;;4959286;28;20031;-73
2022/07/01 02:17:14;;;;;;;2.55;1.10;;;17.60;99.90;;;;;;4955426;28;20388;-73
2022/07/01 02:19:40;;;;;;;2.50;1.15;;;17.60;99.90;;;;;;4972290;28;20424;-73
2022/07/01 02:22:05;;;;;;;2.60;1.20;;;17.60;99.90;;;;;;4964270;28;20023;-74
2022/07/01 02:24:31;;;;;;;2.05;1.20;;;17.50;99.90;;;;;;4953454;28;20023;-74
2022/07/01 02:26:56;;;;;;;3.17;1.40;;;17.50;99.90;;;;;;4966800;28;20377;-74
2022/07/01 02:29:22;;;;;;;3.30;1.50;;;17.50;99.90;;;;;;4954871;28;20472;-74
2022/07/01 02:31:47;;;;;;;1.52;1.20;;;17.50;99.90;;;;;;4955116;29;20081;-74
2022/07/01 02:34:13;;;;;;;2.90;1.20;;;17.50;99.90;;;;;;4937922;29;20057;-74
2022/07/01 02:36:38;;;;;;;2.83;1.30;;;17.50;99.90;;;;;;4954949;28;20362;-74
2022/07/01 02:39:04;;;;;;;3.47;1.27;;;17.50;99.90;;;;;;4964600;28;20030;-74
2022/07/01 02:41:30;;;;;;;3.67;1.20;;;17.50;99.90;;;;;;4972653;28;20023;-74
2022/07/01 02:43:55;;;;;;;1.73;1.15;;;17.50;99.90;;;;;;4954818;28;20427;-74
2022/07/01 02:46:21;;;;;;;1.38;1.15;;;17.50;99.90;;;;;;4967763;28;20102;-74
2022/07/01 02:48:46;;;;;;;2.95;1.13;;;17.50;99.90;;;;;;4955083;28;20076;-74
2022/07/01 02:51:12;;;;;;;3.25;1.67;;;17.50;99.90;;;;;;4965998;28;20018;-74
2022/07/01 02:53:40;;;;;;;2.22;1.20;;;17.50;99.90;;;;;;4957659;28;20377;-74
2022/07/01 02:56:05;;;;;;;3.28;1.63;;;17.50;99.90;;;;;;4963214;28;20037;-74
2022/07/01 02:58:31;;;;;;;3.55;1.33;;;17.50;99.90;;;;;;4973191;28;20031;-74
2022/07/01 03:00:56;;;;;;;1.42;1.00;;;17.40;99.90;;;;;;4937650;29;20469;-74
2022/07/01 03:03:22;;;;;;;1.60;1.20;;;17.40;99.90;;;;;;4954664;29;20027;-73
2022/07/01 03:05:48;;;;;;;2.85;1.35;;;17.40;99.90;;;;;;4968278;28;20051;-74
2022/07/01 03:08:14;;;;;;;3.70;1.23;;;17.40;99.90;;;;;;4964921;28;20030;-74
2022/07/01 03:10:40;;;;;;;3.55;1.45;;;17.40;99.90;;;;;;4960071;28;20102;-74
2022/07/01 03:13:05;;;;;;;1.67;1.20;;;17.40;99.90;;;;;;4961436;28;20031;-73
2022/07/01 03:15:31;;;;;;;4.07;1.30;;;17.40;99.90;;;;;;4955272;28;20020;-74
2022/07/01 03:17:56;;;;;;;3.55;1.10;;;17.40;99.90;;;;;;4956791;28;20027;-74
2022/07/01 03:20:22;;;;;;;3.80;1.35;;;17.30;99.90;;;;;;4954452;28;20473;-74
2022/07/01 03:22:49;;;;;;;1.52;1.20;;;17.40;99.90;;;;;;4946155;28;20435;-74
2022/07/01 03:25:15;;;;;;;2.72;1.30;;;17.40;99.90;;;;;;4964956;28;20011;-74
2022/07/01 03:27:50;;;;;;;1.60;1.30;;;17.40;99.90;;;;;;4937153;29;20381;-74
2022/07/01 03:30:17;;;;;;;;;;;17.50;99.90;;;;;;4928034;29;20094;-74
2022/07/01 03:32:43;;;;;;;4.80;1.50;;;17.50;99.90;;;;;;4956463;28;19906;-74
2022/07/01 03:37:55;;;;;;;2.13;1.40;;;17.50;99.90;;;;;;4954118;29;20046;-74
2022/07/01 03:40:21;;;;;;;1.73;1.10;;;17.50;99.90;;;;;;4963403;28;20132;-74
2022/07/01 03:42:46;;;;;;;1.70;1.30;;;17.50;99.90;;;;;;4972344;28;20519;-74
2022/07/01 03:45:12;;;;;;;1.55;1.27;;;17.50;99.90;;;;;;4954265;29;20500;-73
2022/07/01 03:47:37;;;;;;;3.10;1.35;;;17.50;99.90;;;;;;4967118;28;20031;-74
2022/07/01 03:50:04;;;;;;;2.80;1.38;;;17.40;99.90;;;;;;4973627;28;20026;-73
2022/07/01 03:52:29;;;;;;;2.83;1.17;;;17.50;99.90;;;;;;4962523;28;20548;-74
2022/07/01 03:54:56;;;;;;;1.50;1.20;;;17.40;99.90;;;;;;4965754;28;20109;-74
2022/07/01 03:57:21;;;;;;;2.08;1.20;;;17.40;99.90;;;;;;4959987;28;20031;-74
2022/07/01 03:59:47;;;;;;;2.05;1.10;;;17.40;99.90;;;;;;4965844;28;20098;-74
2022/07/01 04:02:12;;;;;;;2.85;1.30;;;17.50;99.90;;;;;;4961236;28;20023;-74
2022/07/01 04:04:38;;;;;;;1.65;1.23;;;17.50;99.90;;;;;;4977325;28;20431;-74
2022/07/01 04:07:07;;;;;;;2.65;1.02;;;17.50;99.90;;;;;;4949182;28;20031;-74
2022/07/01 04:09:32;;;;;;;2.03;1.00;;;17.50;99.90;;;;;;4941172;29;20405;-74
2022/07/01 04:11:58;;;;;;;2.38;1.35;;;17.50;99.90;;;;;;4969867;28;20097;-75
2022/07/01 04:14:24;;;;;;;3.15;1.40;;;17.60;99.90;;;;;;4957595;29;20078;-75
2022/07/01 04:16:53;;;;;;;1.63;1.20;;;17.50;99.90;;;;;;4935799;29;20477;-74
2022/07/01 04:19:19;;;;;;;4.18;1.40;;;17.50;99.90;;;;;;4955685;29;20030;-74
2022/07/01 04:24:32;;;;;;;1.80;1.33;;;17.50;99.90;;;;;;4950169;29;20102;-74
2022/07/01 04:26:58;;;;;;;3.03;1.30;;;17.60;99.90;;;;;;4938124;29;20043;-73
2022/07/01 04:29:24;;;;;;;1.70;1.30;;;17.50;99.90;;;;;;4954797;29;20031;-74
2022/07/01 04:31:50;;;;;;;1.83;1.20;;;17.60;99.90;;;;;;4959013;28;20090;-74
2022/07/01 04:34:15;;;;;;;3.80;1.40;;;17.60;99.90;;;;;;4952697;29;20035;-74
2022/07/01 04:36:41;;;;;;;1.70;1.30;;;17.60;99.90;;;;;;4949001;28;20027;-76
2022/07/01 04:39:07;;;;;;;2.45;1.30;;;17.60;99.90;;;;;;4954327;29;20031;-76
2022/07/01 04:44:18;;;;;;;2.92;1.40;;;17.60;99.90;;;;;;4954281;28;20107;-74
2022/07/01 04:46:43;;;;;;;2.15;1.30;;;17.60;99.90;;;;;;4954117;29;20464;-74
2022/07/01 04:49:09;;;;;;;1.85;1.20;;;17.60;99.90;;;;;;4954702;28;20081;-74
2022/07/01 04:51:35;;;;;;;2.47;1.20;;;17.70;99.90;;;;;;4953966;28;20162;-74
2022/07/01 04:54:02;;;;;;;5.20;1.20;;;17.70;99.90;;;;;;4937183;29;20090;-74
2022/07/01 04:56:28;;;;;;;3.40;1.40;;;17.70;99.90;;;;;;4953432;28;20031;-74
2022/07/01 04:58:55;;;;;;;2.28;1.20;;;17.70;99.90;;;;;;4953925;29;20380;-74
2022/07/01 05:01:20;;;;;;;2.85;1.30;;;17.80;99.90;;;;;;4954186;28;20048;-74
2022/07/01 05:03:47;;;;;;;1.40;1.08;;;17.80;99.90;;;;;;4952694;28;20030;-74
2022/07/01 05:06:13;;;;;;;3.00;1.52;;;17.80;99.90;;;;;;4950500;28;20049;-75
2022/07/01 05:08:39;;;;;;;3.03;1.67;;;17.80;99.90;;;;;;4953679;28;20035;-75
2022/07/01 05:11:15;;;;;;;1.80;1.20;;;17.80;99.90;;;;;;4953130;28;20036;-75
2022/07/01 05:13:41;;;;;;;6.75;1.50;;;17.80;99.90;;;;;;4952805;29;20019;-75
2022/07/01 05:16:08;;;;;;;2.50;1.35;;;17.80;99.90;;;;;;4954401;28;20480;-75
2022/07/01 05:24:03;;;;;;;1.90;1.33;;;17.90;99.90;;;;;;4953750;28;20035;-76
2022/07/01 05:26:29;;;;;;;2.38;1.40;;;17.90;99.90;;;;;;4953118;28;20493;-76
2022/07/01 05:28:55;;;;;;;2.15;1.30;;;18.00;99.90;;;;;;4953838;28;20027;-76
2022/07/01 05:31:26;;;;;;;2.45;1.58;;;18.00;99.90;;;;;;4932681;29;20754;-78
2022/07/01 05:33:52;;;;;;;2.90;1.60;;;18.00;99.90;;;;;;4953851;29;20035;-75
2022/07/01 05:36:18;;;;;;;2.60;1.20;;;18.10;99.90;;;;;;4954265;28;20472;-76
2022/07/01 05:38:43;;;;;;;4.13;1.10;;;18.10;99.90;;;;;;4954123;29;20155;-70
2022/07/01 05:41:09;;;;;;;2.17;1.48;;;18.20;99.90;;;;;;4953372;29;20074;-70
2022/07/01 05:43:34;;;;;;;2.13;1.45;;;18.20;99.90;;;;;;4953711;29;20082;-70
2022/07/01 05:46:01;;;;;;;2.55;1.40;;;18.20;99.90;;;;;;4953313;28;20041;-75
2022/07/01 05:48:26;;;;;;;2.95;1.55;;;18.20;99.90;;;;;;4953239;29;20082;-76
2022/07/01 05:50:53;;;;;;;3.30;1.40;;;18.10;99.90;;;;;;4953803;29;20028;-75
2022/07/01 05:53:19;;;;;;;3.72;1.40;;;18.20;99.90;;;;;;4953980;29;20121;-80
2022/07/01 05:55:44;;;;;;;3.97;1.63;;;18.20;99.90;;;;;;4960161;28;20129;-79
2022/07/01 05:58:11;;;;;;;2.00;1.40;;;18.30;99.90;;;;;;4962029;28;20078;-80
2022/07/01 06:00:38;;;;;;;1.83;1.27;;;18.30;99.90;;;;;;4972450;28;20468;-79
2022/07/01 06:03:03;;;;;;;2.63;1.50;;;18.30;99.90;;;;;;4946814;29;20038;-80
2022/07/01 06:05:31;;;;;;;5.28;2.78;;;18.20;99.90;;;;;;4951594;28;20336;-79
2022/07/01 06:07:57;;;;;;;6.80;3.70;;;18.20;99.90;;;;;;4955577;28;20027;-79
2022/07/01 06:10:22;;;;;;;7.82;4.15;;;18.20;99.90;;;;;;4954615;28;20034;-79
2022/07/01 06:12:48;;;;;;;4.18;2.72;;;18.30;99.90;;;;;;4954995;28;20031;-79
2022/07/01 06:15:13;;;;;;;4.25;1.83;;;18.40;99.90;;;;;;4954815;28;20083;-79
2022/07/01 06:17:47;;;;;;;1.92;1.50;;;18.50;99.90;;;;;;4960442;28;20031;-77
2022/07/01 06:20:12;;;;;;;4.57;1.60;;;18.50;99.90;;;;;;4952465;29;20035;-76
2022/07/01 06:22:38;;;;;;;3.25;1.65;;;18.50;99.90;;;;;;4955726;28;20074;-76
2022/07/01 06:25:05;;;;;;;3.58;1.75;;;18.50;99.90;;;;;;4956391;29;20110;-76
2022/07/01 06:27:31;;;;;;;3.63;1.55;;;18.50;99.90;;;;;;4956291;28;20051;-76
2022/07/01 06:29:56;;;;;;;1.70;1.40;;;18.50;99.90;;;;;;4967120;28;20023;-76
2022/07/01 06:32:22;;;;;;;2.30;1.50;;;18.50;99.90;;;;;;4968963;28;20098;-76
2022/07/01 06:34:51;;;;;;;3.08;1.48;;;18.50;99.90;;;;;;4956231;29;20059;-76
2022/07/01 06:37:20;;;;;;;2.13;1.45;;;18.60;99.90;;;;;;4939145;29;20027;-76
2022/07/01 06:39:45;;;;;;;1.70;1.25;;;18.80;99.90;;;;;;4955259;28;20026;-76
2022/07/01 06:42:11;;;;;;;2.35;1.40;;;18.90;99.90;;;;;;4956106;29;20045;-76
2022/07/01 06:44:36;;;;;;;2.58;1.60;;;19.00;99.90;;;;;;4938996;29;20027;-76
2022/07/01 06:47:02;;;;;;;5.07;2.70;;;19.20;99.90;;;;;;4955901;28;20026;-76
2022/07/01 06:49:27;;;;;;;3.20;1.60;;;19.20;99.90;;;;;;4955603;29;20468;-76
2022/07/01 06:51:53;;;;;;;2.78;1.60;;;19.30;99.90;;;;;;4940328;28;20028;-76
2022/07/01 06:54:19;;;;;;;3.22;1.60;;;19.30;99.90;;;;;;4936815;29;20032;-76
2022/07/01 06:56:44;;;;;;;2.90;1.73;;;19.30;99.90;;;;;;4950419;29;20086;-76
2022/07/01 06:59:10;;;;;;;2.42;1.45;;;19.20;99.90;;;;;;4955889;28;20065;-76
2022/07/01 07:01:35;;;;;;;3.83;1.45;;;19.00;99.90;;;;;;4944392;29;20106;-76
2022/07/01 07:04:01;;;;;;;2.63;1.50;;;18.80;99.90;;;;;;4953921;29;20027;-76
2022/07/01 07:06:26;;;;;;;1.85;1.42;;;18.50;99.90;;;;;;4965283;28;20379;-76
2022/07/01 07:08:53;;;;;;;4.55;1.80;;;18.40;99.90;;;;;;4942418;29;20038;-76
2022/07/01 07:11:19;;;;;;;5.00;1.70;;;18.20;99.90;;;;;;4955950;29;20102;-76
2022/07/01 07:13:45;;;;;;;3.17;1.80;;;18.10;99.90;;;;;;4955626;29;20024;-76
2022/07/01 07:16:11;;;;;;;1.98;1.60;;;17.90;99.90;;;;;;4956038;29;20027;-76
2022/07/01 07:18:36;;;;;;;2.65;1.70;;;17.80;99.90;;;;;;4955924;29;20027;-76
2022/07/01 07:21:03;;;;;;;8.13;4.20;;;17.80;99.90;;;;;;4959667;28;20027;-76
2022/07/01 07:23:29;;;;;;;4.57;2.70;;;17.60;99.90;;;;;;4956764;28;20035;-76
2022/07/01 07:25:54;;;;;;;4.18;2.05;;;17.60;99.90;;;;;;4957730;28;20031;-76
2022/07/01 07:28:20;;;;;;;4.10;1.90;;;17.50;99.90;;;;;;4966941;28;20035;-76
2022/07/01 07:30:45;;;;;;;4.60;2.30;;;17.50;99.90;;;;;;4954986;29;20396;-76
2022/07/01 07:33:11;;;;;;;3.13;2.20;;;17.30;99.90;;;;;;4936313;29;20031;-76
2022/07/01 07:35:37;;;;;;;3.30;2.38;;;17.20;99.90;;;;;;4936116;29;20099;-76
2022/07/01 07:38:03;;;;;;;5.47;2.90;;;17.10;99.90;;;;;;4936053;29;20111;-76
2022/07/01 07:40:28;;;;;;;3.63;2.50;;;16.90;99.90;;;;;;4936014;29;20024;-76
2022/07/01 07:42:54;;;;;;;2.70;2.50;;;16.80;99.90;;;;;;4951744;29;20034;-76
2022/07/01 07:45:19;;;;;;;5.35;2.60;;;16.60;99.90;;;;;;4954890;29;20024;-76
2022/07/01 07:47:48;;;;;;;3.42;2.35;;;16.50;99.90;;;;;;4966959;28;20038;-76
2022/07/01 07:50:14;;;;;;;2.72;2.28;;;16.30;99.90;;;;;;4969228;28;20026;-76
2022/07/01 07:55:32;;;;;;;7.07;2.50;;;16.10;99.90;;;;;;4885768;29;20033;-76
2022/07/01 07:57:58;;;;;;;3.00;1.45;;;16.10;99.90;;;;;;4951171;29;20121;-77
2022/07/01 08:00:23;;;;;;;2.83;1.80;;;16.00;99.90;;;;;;4970459;28;20054;-75
2022/07/01 08:02:49;;;;;;;2.13;1.23;;;15.90;99.90;;;;;;4960814;28;20032;-75
2022/07/01 08:05:14;;;;;;;2.90;1.08;;;15.70;99.90;;;;;;4954689;28;20019;-75
2022/07/01 08:07:41;;;;;;;1.70;1.20;;;15.60;99.90;;;;;;4954478;29;20030;-75
2022/07/01 08:10:09;;;;;;;2.15;1.10;;;15.40;99.90;;;;;;4954220;29;20031;-75
2022/07/01 08:12:35;;;;;;;2.30;1.05;;;15.20;99.90;;;;;;4954553;29;20023;-75
2022/07/01 08:15:02;;;;;;;1.20;0.98;;;15.00;99.90;;;;;;4954231;29;20334;-75
2022/07/01 08:17:27;;;;;;;1.38;1.00;;;14.90;99.90;;;;;;4954458;28;20847;-75
2022/07/01 08:19:57;;;;;;;2.42;1.00;;;14.80;99.90;;;;;;4949560;29;20102;-76
2022/07/01 08:22:23;;;;;;;1.52;0.85;;;14.70;99.90;;;;;;4953602;29;20493;-74
2022/07/01 08:24:48;;;;;;;12.13;2.00;;;14.70;99.90;;;;;;4955111;29;20020;-74
2022/07/01 08:27:14;;;;;;;3.33;1.40;;;14.60;99.90;;;;;;4937639;29;20480;-74
2022/07/01 08:29:41;;;;;;;2.75;1.40;;;14.50;99.90;;;;;;4935363;29;20028;-71
2022/07/01 08:32:07;;;;;;;1.55;1.45;;;14.40;99.90;;;;;;4949379;29;20503;-72
2022/07/01 08:34:37;;;;;;;1.80;1.63;;;14.30;99.90;;;;;;4952402;28;20031;-72
2022/07/01 08:37:05;;;;;;;2.50;1.70;;;14.20;99.90;;;;;;4934445;29;20122;-73
2022/07/01 08:39:32;;;;;;;1.90;1.60;;;14.10;99.90;;;;;;4949788;28;20501;-72
2022/07/01 08:41:58;;;;;;;1.60;1.45;;;14.00;99.90;;;;;;4943467;29;20063;-73
2022/07/01 08:44:24;;;;;;;2.53;1.75;;;14.00;99.90;;;;;;4966371;28;20054;-72
2022/07/01 08:46:52;;;;;;;2.38;1.40;;;13.90;99.90;;;;;;4954082;28;20062;-75
2022/07/01 08:49:23;;;;;;;2.13;1.20;;;13.90;99.90;;;;;;4934198;28;20138;-75
2022/07/01 08:51:51;;;;;;;2.53;1.75;;;13.90;99.90;;;;;;4953054;28;20867;-75
2022/07/01 08:54:16;;;;;;;3.20;1.33;;;14.00;99.90;;;;;;4955086;28;20062;-74
2022/07/01 08:56:42;;;;;;;3.60;1.70;;;14.00;99.90;;;;;;4954516;28;20769;-75
2022/07/01 08:59:28;;;;;;;2.15;1.45;;;14.10;99.90;;;;;;4952758;28;20082;-75
2022/07/01 09:01:59;;;;;;;2.63;1.55;;;14.20;99.90;;;;;;4954044;28;20031;-75
2022/07/01 09:04:25;;;;;;;2.28;1.30;;;14.20;99.90;;;;;;4951036;28;20106;-75
2022/07/01 09:06:51;;;;;;;1.63;1.48;;;14.20;99.90;;;;;;4955226;28;20452;-76
2022/07/01 09:09:21;;;;;;;1.63;1.20;;;14.20;99.90;;;;;;4953563;28;20043;-76
2022/07/01 09:11:55;;;;;;;2.10;1.40;;;14.10;99.90;;;;;;4956626;28;20702;-76
2022/07/01 09:14:23;;;;;;;1.90;1.40;;;14.20;99.90;;;;;;4954383;28;20109;-76
2022/07/01 09:16:51;;;;;;;1.77;1.27;;;14.20;99.90;;;;;;4949743;28;20643;-74
2022/07/01 09:19:20;;;;;;;1.80;1.10;;;14.30;99.90;;;;;;4953487;28;20031;-75
2022/07/01 09:21:56;;;;;;;1.48;1.30;;;14.30;99.90;;;;;;4956323;28;20033;-75
2022/07/01 09:24:25;;;;;;;7.32;3.92;;;14.30;99.90;;;;;;4952629;28;20039;-75
2022/07/01 09:27:01;;;;;;;7.40;4.43;;;14.40;99.90;;;;;;4952216;28;20050;-75
2022/07/01 09:29:31;;;;;;;7.60;3.30;;;14.40;99.90;;;;;;4932249;28;20559;-75
2022/07/01 09:31:57;;;;;;;5.07;2.22;;;14.40;99.90;;;;;;4935231;28;20058;-75
2022/07/01 09:34:23;;;;;;;2.42;1.42;;;14.40;99.90;;;;;;4956004;28;20110;-75
2022/07/01 09:36:53;;;;;;;2.58;1.75;;;14.50;99.90;;;;;;4954824;28;20039;-75
2022/07/01 09:39:18;;;;;;;5.32;3.63;;;14.50;99.90;;;;;;4955340;28;20097;-75
2022/07/01 09:41:44;;;;;;;5.38;4.10;;;14.60;99.90;;;;;;4939002;28;20028;-75
2022/07/01 09:44:10;;;;;;;4.43;2.53;;;14.60;99.90;;;;;;4957020;28;20834;-75
2022/07/01 09:46:36;;;;;;;2.00;1.70;;;14.70;99.90;;;;;;4934947;28;20487;-75
2022/07/01 09:49:02;;;;;;;1.67;1.30;;;14.70;99.90;;;;;;4948321;28;20032;-75
2022/07/01 09:51:31;;;;;;;3.33;2.10;;;14.90;99.90;;;;;;4937638;28;20039;-75
2022/07/01 09:53:57;;;;;;;2.08;1.65;;;14.90;99.90;;;;;;4946349;28;20020;-74
2022/07/01 09:56:23;;;;;;;2.35;1.45;;;15.00;99.90;;;;;;4945550;28;20392;-75
2022/07/01 09:58:49;;;;;;;2.20;1.40;;;15.10;99.90;;;;;;4948929;28;20038;-75
2022/07/01 10:01:16;;;;;;;1.15;1.00;;;15.10;99.90;;;;;;4950573;29;20031;-75
2022/07/01 10:03:41;;;;;;;2.90;1.27;;;15.30;99.90;;;;;;4950126;28;20043;-75
2022/07/01 10:06:07;;;;;;;2.13;1.35;;;15.20;99.90;;;;;;4950784;28;20028;-75
2022/07/01 10:08:57;;;;;;;2.95;1.60;;;15.20;99.90;;;;;;4950468;28;20081;-75
2022/07/01 10:11:44;;;;;;;2.10;1.50;;;15.20;99.90;;;;;;4940001;28;20035;-75
2022/07/01 10:14:12;;;;;;;2.97;1.15;;;15.20;99.90;;;;;;4948735;28;20042;-75
2022/07/01 10:16:38;;;;;;;1.25;1.15;;;15.20;99.90;;;;;;4950768;28;20074;-75
2022/07/01 10:19:23;;;;;;;1.73;1.00;;;15.20;99.90;;;;;;4950274;28;20063;-75
2022/07/01 10:21:51;;;;;;;;;;;15.20;99.90;;;;;;4947117;29;20095;-75
2022/07/01 10:24:18;;;;;;;1.10;1.00;;;15.20;99.90;;;;;;4938064;29;19926;-75
2022/07/01 10:26:45;;;;;;;1.92;1.23;;;15.20;99.90;;;;;;4948886;29;20111;-74
2022/07/01 10:29:38;;;;;;;1.70;1.40;;;15.20;99.90;;;;;;4949645;29;20058;-74
2022/07/01 10:32:25;;;;;;;1.77;1.15;;;15.20;99.90;;;;;;4950129;29;20042;-74
2022/07/01 10:35:02;;;;;;;1.40;1.10;;;15.20;99.90;;;;;;4949527;29;20027;-74
2022/07/01 10:37:28;;;;;;;3.25;1.50;;;15.20;99.90;;;;;;4950000;29;20039;-74
2022/07/01 10:39:53;;;;;;;2.75;1.52;;;15.10;99.90;;;;;;4949335;29;20039;-74
2022/07/01 10:42:19;;;;;;;3.85;1.80;;;15.10;99.90;;;;;;4949523;28;20039;-74
2022/07/01 10:45:09;;;;;;;1.67;1.40;;;15.10;99.90;;;;;;4930134;28;20019;-75
2022/07/01 10:47:36;;;;;;;1.40;1.20;;;15.20;99.90;;;;;;4951594;28;20031;-75
2022/07/01 10:50:16;;;;;;;2.40;1.20;;;15.20;99.90;;;;;;4953099;28;20031;-75
2022/07/01 10:53:04;;;;;;;2.15;1.40;;;15.20;99.90;;;;;;4952495;28;20075;-75
2022/07/01 10:55:40;;;;;;;2.10;1.27;;;15.20;99.90;;;;;;4953732;28;20388;-75
2022/07/01 10:58:06;;;;;;;2.42;1.40;;;15.20;99.90;;;;;;4953269;28;20034;-75
2022/07/01 11:00:34;;;;;;;3.15;1.60;;;15.20;99.90;;;;;;4951664;28;20396;-75
2022/07/01 11:03:11;;;;;;;1.83;1.40;;;15.20;99.90;;;;;;4958715;28;20031;-75
2022/07/01 11:05:37;;;;;;;1.98;1.60;;;15.20;99.90;;;;;;4956239;28;20042;-75
2022/07/01 11:08:05;;;;;;;1.90;1.52;;;15.20;99.90;;;;;;4949670;28;20019;-75
2022/07/01 11:10:31;;;;;;;2.65;1.60;;;15.30;99.90;;;;;;4948585;28;20023;-75
2022/07/01 11:12:56;;;;;;;3.38;1.50;;;15.30;99.90;;;;;;4945064;28;20035;-75
2022/07/01 11:15:22;;;;;;;2.67;1.30;;;15.40;99.90;;;;;;4957734;28;20057;-75
2022/07/01 11:17:50;;;;;;;2.05;1.40;;;15.40;99.90;;;;;;4952972;28;20019;-75
2022/07/01 11:20:16;;;;;;;2.45;1.00;;;15.40;99.90;;;;;;4949719;28;20039;-75
2022/07/01 11:22:42;;;;;;;3.13;1.17;;;15.40;99.90;;;;;;4953021;28;20345;-74
2022/07/01 11:25:13;;;;;;;1.33;1.05;;;15.40;99.90;;;;;;4959281;28;20069;-73
2022/07/01 11:27:40;;;;;;;2.38;1.50;;;15.40;99.90;;;;;;4945166;28;20039;-73
2022/07/01 11:30:11;;;;;;;3.67;2.15;;;15.30;99.90;;;;;;4961564;28;20471;-73
2022/07/01 11:32:43;;;;;;;2.55;1.60;;;15.30;99.90;;;;;;4959834;28;20030;-73
2022/07/01 11:41:06;;;;;;;4.60;2.28;;;15.30;99.90;;;;;;4956884;28;20050;-73
2022/07/01 11:43:38;;;;;;;2.10;1.60;;;15.30;99.90;;;;;;4954134;28;20038;-73
2022/07/01 11:46:05;;;;;;;2.15;1.50;;;15.30;99.90;;;;;;4948659;28;20624;-73
2022/07/01 11:48:47;;;;;;;1.73;1.38;;;15.30;99.90;;;;;;4956500;28;20029;-73
2022/07/01 11:51:18;;;;;;;4.18;3.10;;;15.20;99.90;;;;;;4954424;28;20031;-73
2022/07/01 11:53:48;;;;;;;1.58;1.30;;;15.20;99.90;;;;;;4934938;28;20129;-73
2022/07/01 11:56:15;;;;;;;7.20;1.58;;;15.20;99.90;;;;;;4951852;28;20042;-73
2022/07/01 11:58:51;;;;;;;1.67;1.50;;;15.20;99.90;;;;;;4952606;28;20114;-73
2022/07/01 12:01:20;;;;;;;1.80;1.60;;;15.20;99.90;;;;;;4955434;28;20584;-74
2022/07/01 12:03:46;;;;;;;2.90;2.10;;;15.30;99.90;;;;;;4950625;28;20046;-73
2022/07/01 12:06:12;;;;;;;2.05;1.50;;;15.30;99.90;;;;;;4935089;28;20367;-74
2022/07/01 12:08:38;;;;;;;2.03;1.50;;;15.40;99.90;;;;;;4950267;28;20046;-74
2022/07/01 12:11:04;;;;;;;2.85;1.83;;;15.50;99.90;;;;;;4949251;29;20031;-74
2022/07/01 12:13:36;;;;;;;1.70;1.50;;;15.50;99.90;;;;;;4949143;28;20032;-73
2022/07/01 12:16:11;;;;;;;2.22;1.60;;;15.60;99.90;;;;;;4948407;28;20389;-73
2022/07/01 12:18:37;;;;;;;2.22;1.40;;;15.60;99.90;;;;;;4948941;28;20038;-74
2022/07/01 12:21:03;;;;;;;1.67;1.40;;;15.60;99.90;;;;;;4952090;28;20024;-73
2022/07/01 12:23:32;;;;;;;2.63;1.58;;;15.50;99.90;;;;;;4937431;28;20038;-74
2022/07/01 12:25:58;;;;;;;2.53;1.70;;;15.60;99.90;;;;;;4949919;28;20050;-74
2022/07/01 12:28:43;;;;;;;2.47;1.50;;;15.50;99.90;;;;;;4952261;28;20065;-73
2022/07/01 12:31:10;;;;;;;3.53;1.50;;;15.50;99.90;;;;;;4951658;28;20027;-74
2022/07/01 12:33:47;;;;;;;2.72;1.80;;;15.50;99.90;;;;;;4952176;28;20269;-74
2022/07/01 12:36:15;;;;;;;6.32;4.35;;;15.40;99.90;;;;;;4951704;28;20535;-74
2022/07/01 12:38:42;;;;;;;6.35;4.30;;;15.40;99.90;;;;;;4951633;29;20031;-73
2022/07/01 12:41:27;;;;;;;2.15;1.95;;;15.30;99.90;;;;;;4952093;28;20015;-74
2022/07/01 12:43:53;;;;;;;4.10;1.80;;;15.20;99.90;;;;;;4952100;29;20029;-74
2022/07/01 12:46:29;;;;;;;2.22;2.00;;;15.10;99.90;;;;;;4951794;28;20032;-73
2022/07/01 12:48:55;;;;;;;2.92;2.20;;;15.10;99.90;;;;;;4951230;29;20035;-73
2022/07/01 12:51:21;;;;;;;2.78;1.85;;;15.00;99.90;;;;;;4952153;29;20027;-73
2022/07/01 12:53:46;;;;;;;4.90;2.33;;;15.00;99.90;;;;;;4951309;28;20050;-73
2022/07/01 12:56:26;;;;;;;2.40;2.00;;;15.00;99.90;;;;;;4951969;29;20023;-73
2022/07/01 12:58:52;;;;;;;3.17;2.58;;;15.00;99.90;;;;;;4951689;28;20031;-73
2022/07/01 13:01:19;;;;;;;4.15;2.80;;;15.00;99.90;;;;;;4934133;29;20402;-73
2022/07/01 13:03:45;;;;;;;2.90;2.60;;;15.10;99.90;;;;;;4948105;28;20464;-73
2022/07/01 13:06:13;;;;;;;2.85;2.20;;;15.20;99.90;;;;;;4950653;28;20034;-74
2022/07/01 13:08:39;;;;;;;3.78;3.05;;;15.40;99.90;;;;;;4951299;28;20389;-73
2022/07/01 13:11:06;;;;;;;2.97;2.22;;;15.50;99.90;;;;;;4950600;29;20038;-74